Time;durP1;ratioP1;P1;durP2;ratioP2;P2;SDS_P1;SDS_P2;PMS_P1;PMS_P2;Temp;Humidity;BMP_temperature;BMP_pressure;BME280_temperature;BME280_humidity;BME280_pressure;Samples;Min_cycle;Max_cycle;Signal;HPM_P1;HPM_P2
2020/12/21 00:00:25;;;;;;;742.53;683.03;;;;;;;;;;6166214;23;20148;-61
2020/12/21 00:02:52;;;;;;;805.97;734.33;;;;;;;;;;6168267;23;20778;-63
2020/12/21 00:05:18;;;;;;;720.67;660.53;;;;;;;;;;6165109;23;20227;-61
2020/12/21 00:07:45;;;;;;;682.53;631.27;;;;;;;;;;6166186;23;20670;-62
2020/12/21 00:10:12;;;;;;;804.67;736.30;;;;;;;;;;6164663;23;20147;-62
2020/12/21 00:12:38;;;;;;;750.57;691.87;;;;;;;;;;6166506;23;20152;-61
2020/12/21 00:15:05;;;;;;;714.10;656.77;;;;;;;;;;6166042;23;20175;-61
2020/12/21 00:17:32;;;;;;;773.77;708.97;;;;;;;;;;6163803;23;20662;-62
2020/12/21 00:19:59;;;;;;;771.00;703.90;;;;;;;;;;6165397;23;20151;-61
2020/12/21 00:22:26;;;;;;;786.63;720.27;;;;;;;;;;6165871;23;20328;-62
2020/12/21 00:24:52;;;;;;;729.10;673.70;;;;;;;;;;6167602;23;20152;-61
2020/12/21 00:27:21;;;;;;;746.73;684.70;;;;;;;;;;6167434;22;20155;-62
2020/12/21 00:29:48;;;;;;;736.43;678.20;;;;;;;;;;6166514;23;20167;-61
2020/12/21 00:32:15;;;;;;;819.97;751.53;;;;;;;;;;6166540;23;20144;-61
2020/12/21 00:34:41;;;;;;;740.50;679.30;;;;;;;;;;6166667;23;20152;-63
2020/12/21 00:37:09;;;;;;;865.73;787.37;;;;;;;;;;6168852;23;20203;-61
2020/12/21 00:39:36;;;;;;;734.73;681.03;;;;;;;;;;6166310;23;20159;-64
2020/12/21 00:42:02;;;;;;;764.10;700.23;;;;;;;;;;6165769;23;20247;-63
2020/12/21 00:44:31;;;;;;;717.50;661.77;;;;;;;;;;6165008;23;20820;-64
2020/12/21 00:46:58;;;;;;;706.40;653.10;;;;;;;;;;6166652;22;20213;-61
2020/12/21 00:49:25;;;;;;;701.53;644.57;;;;;;;;;;6166287;23;20153;-63
2020/12/21 00:51:52;;;;;;;702.73;648.17;;;;;;;;;;6165082;23;20201;-63
2020/12/21 00:54:20;;;;;;;873.83;790.50;;;;;;;;;;6164398;22;20152;-63
2020/12/21 00:56:47;;;;;;;632.03;588.00;;;;;;;;;;6164259;22;20189;-63
2020/12/21 00:59:14;;;;;;;848.47;769.67;;;;;;;;;;6164925;23;20252;-62
2020/12/21 01:01:40;;;;;;;655.33;604.73;;;;;;;;;;6165878;23;20175;-62
2020/12/21 01:04:07;;;;;;;753.87;690.53;;;;;;;;;;6163914;23;20168;-62
2020/12/21 01:06:34;;;;;;;738.93;676.10;;;;;;;;;;6165466;23;20156;-62
2020/12/21 01:09:01;;;;;;;802.50;728.07;;;;;;;;;;6165738;22;20893;-61
2020/12/21 01:11:29;;;;;;;650.27;603.50;;;;;;;;;;6165283;23;20235;-61
2020/12/21 01:13:55;;;;;;;844.63;768.00;;;;;;;;;;6166161;23;20160;-62
2020/12/21 01:16:22;;;;;;;758.17;690.30;;;;;;;;;;6165544;23;20234;-61
2020/12/21 01:18:49;;;;;;;619.87;576.93;;;;;;;;;;6165201;23;20222;-61
2020/12/21 01:21:26;;;;;;;775.43;711.03;;;;;;;;;;6161755;23;20386;-62
2020/12/21 01:23:54;;;;;;;649.80;599.63;;;;;;;;;;6165012;23;20152;-61
2020/12/21 01:26:21;;;;;;;762.47;698.13;;;;;;;;;;6185909;23;20164;-63
2020/12/21 01:28:48;;;;;;;702.33;644.67;;;;;;;;;;6167124;23;20145;-61
2020/12/21 01:31:15;;;;;;;745.87;682.67;;;;;;;;;;6166322;23;20179;-61
2020/12/21 01:33:42;;;;;;;824.90;753.00;;;;;;;;;;6166894;23;20155;-61
2020/12/21 01:36:08;;;;;;;738.73;675.70;;;;;;;;;;6165918;23;20144;-61
2020/12/21 01:38:35;;;;;;;752.53;687.03;;;;;;;;;;6166443;23;20599;-61
2020/12/21 01:41:02;;;;;;;697.93;642.70;;;;;;;;;;6167731;23;20803;-62
2020/12/21 01:43:28;;;;;;;666.97;611.47;;;;;;;;;;6165971;23;20164;-60
2020/12/21 01:45:55;;;;;;;801.97;728.90;;;;;;;;;;6166981;23;20588;-60
2020/12/21 01:48:22;;;;;;;752.87;692.60;;;;;;;;;;6165231;23;20924;-62
2020/12/21 01:50:48;;;;;;;821.50;746.87;;;;;;;;;;6165650;23;20726;-60
2020/12/21 01:53:15;;;;;;;925.77;835.97;;;;;;;;;;6164992;23;20156;-62
2020/12/21 01:55:43;;;;;;;873.27;796.63;;;;;;;;;;6166123;23;20255;-62
2020/12/21 01:58:10;;;;;;;716.83;660.67;;;;;;;;;;6167008;23;20195;-63
2020/12/21 02:00:37;;;;;;;717.80;661.97;;;;;;;;;;6165446;23;20209;-62
2020/12/21 02:03:08;;;;;;;961.20;862.60;;;;;;;;;;6163662;23;20149;-63
2020/12/21 02:14:44;;;;;;;775.40;711.93;;;;;;;;;;6101590;22;20916;-63
2020/12/21 02:17:11;;;;;;;774.30;710.87;;;;;;;;;;6102929;22;20587;-62
2020/12/21 02:19:37;;;;;;;828.70;754.47;;;;;;;;;;6103407;22;20920;-64
2020/12/21 02:22:04;;;;;;;762.80;700.40;;;;;;;;;;6105353;22;20172;-63
2020/12/21 02:24:31;;;;;;;815.63;740.83;;;;;;;;;;6105154;22;20242;-62
2020/12/21 02:26:57;;;;;;;826.97;753.33;;;;;;;;;;6103956;22;20496;-61
2020/12/21 02:29:24;;;;;;;945.57;854.97;;;;;;;;;;6102696;22;20166;-62
2020/12/21 02:31:50;;;;;;;968.70;874.00;;;;;;;;;;6102855;22;20240;-63
2020/12/21 02:34:25;;;;;;;971.30;872.40;;;;;;;;;;6093853;22;20220;-62
2020/12/21 02:36:54;;;;;;;908.10;822.03;;;;;;;;;;6087431;22;20182;-61
2020/12/21 02:39:21;;;;;;;920.10;832.30;;;;;;;;;;6077789;22;20579;-61
2020/12/21 02:41:48;;;;;;;933.63;842.87;;;;;;;;;;6077664;22;20160;-61
2020/12/21 02:44:15;;;;;;;951.13;860.17;;;;;;;;;;6074163;22;20158;-62
2020/12/21 02:46:43;;;;;;;925.57;842.70;;;;;;;;;;6074729;22;20609;-61
2020/12/21 02:49:10;;;;;;;833.80;766.27;;;;;;;;;;6071614;22;20783;-62
2020/12/21 02:51:40;;;;;;;966.33;875.57;;;;;;;;;;6087425;22;20165;-62
2020/12/21 02:54:07;;;;;;;851.53;786.20;;;;;;;;;;6102812;22;20484;-62
2020/12/21 02:56:36;;;;;;;806.90;748.30;;;;;;;;;;6093059;22;20543;-61
2020/12/21 02:59:02;;;;;;;916.67;833.20;;;;;;;;;;6074816;23;20169;-62
2020/12/21 03:01:31;;;;;;;917.97;838.37;;;;;;;;;;6075219;23;20193;-62
2020/12/21 03:03:58;;;;;;;884.37;805.57;;;;;;;;;;6073997;23;20168;-62
2020/12/21 03:12:15;;;;;;;859.70;790.90;;;;;;;;;;6100995;23;20163;-62
2020/12/21 03:17:49;;;;;;;921.07;833.23;;;;;;;;;;6071344;23;20755;-61
2020/12/21 03:23:19;;;;;;;873.40;801.47;;;;;;;;;;6068689;23;20236;-61
2020/12/21 03:28:54;;;;;;;821.73;756.10;;;;;;;;;;6070958;23;20316;-60
2020/12/21 03:34:24;;;;;;;862.27;790.83;;;;;;;;;;6071865;23;20204;-61
2020/12/21 03:39:54;;;;;;;881.47;803.10;;;;;;;;;;6068839;23;20219;-62
2020/12/21 14:28:46;;;;;;;454.27;428.40;;;;;;;;;;5095063;28;20205;-62
2020/12/21 14:34:17;;;;;;;487.50;458.23;;;;;;;;;;5093994;28;20181;-61
2020/12/21 14:39:48;;;;;;;420.47;396.67;;;;;;;;;;5093976;28;20268;-61
2020/12/21 14:45:19;;;;;;;533.40;498.20;;;;;;;;;;5092995;28;20195;-62
2020/12/21 14:50:49;;;;;;;423.83;399.00;;;;;;;;;;5091768;28;20186;-61
2020/12/21 14:56:19;;;;;;;583.83;540.30;;;;;;;;;;5092058;28;20223;-61
2020/12/21 15:01:56;;;;;;;563.00;524.37;;;;;;;;;;5091985;28;20239;-60
2020/12/21 15:07:26;;;;;;;503.77;467.87;;;;;;;;;;5091633;28;20752;-62
2020/12/21 15:13:01;;;;;;;380.13;356.10;;;;;;;;;;5089136;28;20181;-60
2020/12/21 15:18:31;;;;;;;459.80;429.80;;;;;;;;;;5074341;28;20177;-60
2020/12/21 15:24:01;;;;;;;463.03;434.93;;;;;;;;;;5087389;28;20228;-60
2020/12/21 15:29:32;;;;;;;500.53;463.23;;;;;;;;;;5090996;28;20214;-60
2020/12/21 15:35:02;;;;;;;408.20;380.07;;;;;;;;;;5064700;28;20330;-60
2020/12/21 15:40:34;;;;;;;421.23;393.73;;;;;;;;;;5076923;28;20247;-60
2020/12/21 15:46:04;;;;;;;369.90;345.90;;;;;;;;;;5077406;28;20174;-61
2020/12/21 15:51:39;;;;;;;550.43;509.07;;;;;;;;;;5076412;28;20658;-61
2020/12/21 15:57:12;;;;;;;559.70;517.33;;;;;;;;;;5076673;28;20186;-61
2020/12/21 16:02:42;;;;;;;516.10;480.80;;;;;;;;;;5076610;28;20695;-62
2020/12/21 16:08:14;;;;;;;616.93;567.90;;;;;;;;;;5076135;28;20181;-62
2020/12/21 16:13:47;;;;;;;662.37;609.67;;;;;;;;;;5075981;28;20196;-61
2020/12/21 16:19:17;;;;;;;601.67;555.10;;;;;;;;;;5075218;28;20537;-61
2020/12/21 16:24:47;;;;;;;643.87;594.30;;;;;;;;;;5068327;28;20237;-61
2020/12/21 16:30:17;;;;;;;640.67;587.40;;;;;;;;;;5070903;28;20182;-61
2020/12/21 16:35:52;;;;;;;438.53;406.13;;;;;;;;;;5073922;28;20221;-60
2020/12/21 16:41:24;;;;;;;564.97;519.80;;;;;;;;;;5073543;28;20177;-61
2020/12/21 16:46:54;;;;;;;564.20;520.10;;;;;;;;;;5055039;28;20195;-62
2020/12/21 16:52:25;;;;;;;532.57;491.73;;;;;;;;;;5069732;28;20185;-60
2020/12/21 16:57:54;;;;;;;603.63;555.27;;;;;;;;;;5074802;28;20189;-60
2020/12/21 17:03:25;;;;;;;646.07;594.73;;;;;;;;;;5074339;28;20249;-62
2020/12/21 17:08:55;;;;;;;801.53;740.47;;;;;;;;;;5054424;28;20211;-61
2020/12/21 17:14:25;;;;;;;852.97;785.90;;;;;;;;;;5054291;28;20641;-60
2020/12/21 17:19:55;;;;;;;713.93;660.20;;;;;;;;;;5066654;28;20596;-61
2020/12/21 17:25:25;;;;;;;703.47;648.93;;;;;;;;;;5067792;28;20661;-61
2020/12/21 17:30:55;;;;;;;823.40;757.30;;;;;;;;;;5065668;28;20200;-62
2020/12/21 17:33:22;;;;;;;770.63;713.87;;;;;;;;;;5059358;28;20547;-62
2020/12/21 17:35:48;;;;;;;779.40;722.10;;;;;;;;;;5058415;28;20284;-63
2020/12/21 17:38:15;;;;;;;807.27;745.80;;;;;;;;;;5053317;28;20779;-63
2020/12/21 17:40:43;;;;;;;763.87;703.73;;;;;;;;;;5055227;28;20248;-62
2020/12/21 17:43:10;;;;;;;679.30;625.87;;;;;;;;;;5058330;28;20179;-63
2020/12/21 17:45:37;;;;;;;753.27;698.00;;;;;;;;;;5059072;28;20559;-63
2020/12/21 17:48:03;;;;;;;717.43;663.70;;;;;;;;;;5057858;28;20225;-61
2020/12/21 17:50:30;;;;;;;789.80;722.87;;;;;;;;;;5057475;28;20183;-63
2020/12/21 17:52:58;;;;;;;779.43;715.90;;;;;;;;;;5048169;28;20183;-63
2020/12/21 17:55:24;;;;;;;820.13;756.90;;;;;;;;;;5052559;28;20225;-62
2020/12/21 17:57:51;;;;;;;800.70;733.93;;;;;;;;;;5061080;28;20179;-64
2020/12/21 18:00:17;;;;;;;834.70;769.20;;;;;;;;;;5059287;28;20194;-61
2020/12/21 18:02:45;;;;;;;948.17;869.93;;;;;;;;;;5059637;28;20177;-61
2020/12/21 18:05:11;;;;;;;820.60;749.73;;;;;;;;;;5057369;28;20653;-63
2020/12/21 18:07:38;;;;;;;825.80;757.90;;;;;;;;;;5049684;28;20184;-62
2020/12/21 18:10:05;;;;;;;835.40;770.40;;;;;;;;;;5054348;28;20182;-61
2020/12/21 18:12:36;;;;;;;876.50;806.20;;;;;;;;;;5055971;28;20375;-62
2020/12/21 18:15:03;;;;;;;892.23;807.70;;;;;;;;;;5049524;28;20190;-62
2020/12/21 18:17:30;;;;;;;858.63;788.40;;;;;;;;;;5057578;28;20757;-63
2020/12/21 18:19:58;;;;;;;837.47;769.47;;;;;;;;;;5058945;28;20183;-62
2020/12/21 18:22:29;;;;;;;813.00;753.13;;;;;;;;;;5056052;28;20174;-62
2020/12/21 18:24:56;;;;;;;770.90;710.73;;;;;;;;;;5060609;28;20656;-62
2020/12/21 18:27:23;;;;;;;761.10;703.97;;;;;;;;;;5055174;28;20179;-63
2020/12/21 18:29:49;;;;;;;771.10;708.93;;;;;;;;;;5060662;28;20179;-62
2020/12/21 18:32:16;;;;;;;787.00;718.77;;;;;;;;;;5057267;28;20685;-62
2020/12/21 18:34:43;;;;;;;837.80;768.83;;;;;;;;;;5061031;28;20205;-63
2020/12/21 18:37:09;;;;;;;885.53;810.40;;;;;;;;;;5058894;28;20191;-64
2020/12/21 18:39:36;;;;;;;920.97;848.33;;;;;;;;;;5054906;28;20187;-62
2020/12/21 18:42:02;;;;;;;927.07;842.60;;;;;;;;;;5052341;28;20234;-63
2020/12/21 18:44:29;;;;;;;829.50;761.17;;;;;;;;;;5056633;28;20668;-63
2020/12/21 18:46:56;;;;;;;844.43;774.03;;;;;;;;;;5056775;28;20186;-62
2020/12/21 18:49:22;;;;;;;869.07;799.33;;;;;;;;;;5057063;28;20625;-63
2020/12/21 18:51:49;;;;;;;751.10;694.53;;;;;;;;;;5058001;28;20180;-64
2020/12/21 18:54:15;;;;;;;796.37;731.87;;;;;;;;;;5056661;28;20180;-63
2020/12/21 18:56:43;;;;;;;761.03;701.03;;;;;;;;;;5054139;28;20217;-62
2020/12/21 18:59:09;;;;;;;861.13;784.67;;;;;;;;;;5057093;28;20187;-63
2020/12/21 19:01:40;;;;;;;873.47;791.73;;;;;;;;;;5052707;28;20613;-63
2020/12/21 19:04:07;;;;;;;874.90;792.87;;;;;;;;;;5057546;28;20353;-62
2020/12/21 19:06:35;;;;;;;988.93;897.53;;;;;;;;;;5054738;28;20175;-62
2020/12/21 19:09:02;;;;;;;841.37;768.67;;;;;;;;;;5052531;28;20175;-62
2020/12/21 19:11:29;;;;;;;905.77;821.57;;;;;;;;;;5053482;28;20187;-64
2020/12/21 19:13:55;;;;;;;877.53;801.83;;;;;;;;;;5060616;28;20195;-62
2020/12/21 19:16:28;;;;;;;835.60;765.80;;;;;;;;;;5061831;28;20180;-63
2020/12/21 19:18:55;;;;;;;741.20;679.00;;;;;;;;;;5058814;28;20191;-62
2020/12/21 19:21:22;;;;;;;822.50;758.27;;;;;;;;;;5061442;28;20534;-62
2020/12/21 19:23:48;;;;;;;722.87;664.57;;;;;;;;;;5060576;28;20203;-63
2020/12/21 19:26:15;;;;;;;690.90;634.90;;;;;;;;;;5060094;28;20284;-64
2020/12/21 19:28:43;;;;;;;741.97;684.97;;;;;;;;;;5061042;28;20179;-65
2020/12/21 19:31:10;;;;;;;820.97;749.33;;;;;;;;;;5057328;28;20230;-63
2020/12/21 19:33:37;;;;;;;835.07;769.60;;;;;;;;;;5060273;28;20191;-64
2020/12/21 19:36:04;;;;;;;761.77;696.60;;;;;;;;;;5058807;28;20179;-63
2020/12/21 19:38:31;;;;;;;777.00;708.37;;;;;;;;;;5060050;28;20202;-65
2020/12/21 19:40:58;;;;;;;767.60;705.17;;;;;;;;;;5055777;28;20188;-63
2020/12/21 19:43:25;;;;;;;790.00;727.33;;;;;;;;;;5057477;28;20179;-62
2020/12/21 19:45:52;;;;;;;800.37;739.33;;;;;;;;;;5059027;28;20183;-63
2020/12/21 19:48:19;;;;;;;770.73;707.03;;;;;;;;;;5061008;28;20600;-64
2020/12/21 19:50:46;;;;;;;847.50;776.80;;;;;;;;;;5061032;28;20302;-63
2020/12/21 19:53:14;;;;;;;751.30;689.70;;;;;;;;;;5060330;28;20183;-65
2020/12/21 19:58:19;;;;;;;873.13;801.73;;;;;;;;;;5037624;28;20231;-74
2020/12/21 20:00:46;;;;;;;821.33;753.57;;;;;;;;;;5038108;28;20868;-74
2020/12/21 20:03:13;;;;;;;832.73;764.37;;;;;;;;;;5038562;28;20184;-73
2020/12/21 20:05:40;;;;;;;763.87;706.43;;;;;;;;;;5040444;28;20256;-72
2020/12/21 20:08:06;;;;;;;907.00;824.67;;;;;;;;;;5042466;28;20187;-73
2020/12/21 20:10:33;;;;;;;840.07;774.57;;;;;;;;;;5042950;28;20344;-74
2020/12/21 20:13:00;;;;;;;779.87;714.77;;;;;;;;;;5041885;28;20182;-75
2020/12/21 20:15:26;;;;;;;805.67;733.10;;;;;;;;;;5038520;28;20194;-74
2020/12/21 20:17:53;;;;;;;782.93;721.23;;;;;;;;;;5041561;28;20507;-75
2020/12/21 20:20:19;;;;;;;867.43;793.47;;;;;;;;;;5039762;28;20211;-74
2020/12/21 20:22:46;;;;;;;998.73;895.87;;;;;;;;;;5039530;28;20270;-74
2020/12/21 20:25:13;;;;;;;885.10;803.23;;;;;;;;;;5040923;28;20495;-72
2020/12/21 20:27:39;;;;;;;877.17;799.57;;;;;;;;;;5040219;28;20215;-74
2020/12/21 20:30:07;;;;;;;971.03;879.70;;;;;;;;;;5042159;28;20186;-73
2020/12/21 20:32:36;;;;;;;931.30;854.90;;;;;;;;;;5040659;28;20188;-75
2020/12/21 20:35:03;;;;;;;778.40;720.27;;;;;;;;;;5040989;28;20187;-73
2020/12/21 20:37:29;;;;;;;915.90;836.57;;;;;;;;;;5038898;28;20222;-76
2020/12/21 20:39:56;;;;;;;816.10;748.77;;;;;;;;;;5033708;28;20187;-71
2020/12/21 20:42:23;;;;;;;723.10;663.80;;;;;;;;;;5030946;28;20187;-76
2020/12/21 20:44:50;;;;;;;780.00;716.77;;;;;;;;;;5032799;28;20694;-71
2020/12/21 20:47:17;;;;;;;777.53;717.73;;;;;;;;;;5035466;28;20868;-71
2020/12/21 20:49:45;;;;;;;813.20;747.20;;;;;;;;;;5034778;28;20180;-70
2020/12/21 20:52:12;;;;;;;873.30;800.17;;;;;;;;;;5090171;22;20935;-64
2020/12/21 20:54:38;;;;;;;771.47;710.47;;;;;;;;;;5030767;28;20183;-63
2020/12/21 20:57:05;;;;;;;697.83;640.07;;;;;;;;;;5033967;28;20172;-61
2020/12/21 20:59:33;;;;;;;761.27;698.63;;;;;;;;;;5034880;28;20430;-63
2020/12/21 21:02:01;;;;;;;791.63;723.00;;;;;;;;;;5034167;28;20241;-63
2020/12/21 21:04:27;;;;;;;921.97;837.90;;;;;;;;;;5035194;28;20249;-63
2020/12/21 21:06:54;;;;;;;795.23;726.50;;;;;;;;;;5034269;28;20186;-62
2020/12/21 21:09:21;;;;;;;822.20;745.90;;;;;;;;;;5034663;28;20196;-64
2020/12/21 21:11:49;;;;;;;659.00;609.93;;;;;;;;;;5037266;28;20232;-64
2020/12/21 21:14:17;;;;;;;844.50;765.50;;;;;;;;;;5031490;28;20183;-64
2020/12/21 21:16:51;;;;;;;963.07;865.57;;;;;;;;;;5032045;28;20196;-62
2020/12/21 21:19:23;;;;;;;800.53;724.57;;;;;;;;;;5030311;28;20728;-64
2020/12/21 21:21:54;;;;;;;718.63;658.03;;;;;;;;;;5031153;28;20211;-64
2020/12/21 21:24:24;;;;;;;729.60;663.17;;;;;;;;;;5034505;28;20226;-62
2020/12/21 21:26:53;;;;;;;837.50;754.40;;;;;;;;;;5032289;28;20991;-62
2020/12/21 21:29:24;;;;;;;834.60;758.40;;;;;;;;;;5035918;28;20691;-62
2020/12/21 21:31:55;;;;;;;778.97;706.13;;;;;;;;;;5030994;28;20215;-65
2020/12/21 21:34:24;;;;;;;713.67;653.67;;;;;;;;;;5034190;28;20184;-64
2020/12/21 21:36:51;;;;;;;747.37;680.60;;;;;;;;;;5027434;28;20199;-64
2020/12/21 21:39:20;;;;;;;701.80;639.30;;;;;;;;;;5030482;28;20197;-63
2020/12/21 21:41:57;;;;;;;762.93;697.93;;;;;;;;;;5029661;28;20897;-62
2020/12/21 21:44:24;;;;;;;685.57;628.33;;;;;;;;;;5030027;28;20226;-62
2020/12/21 21:46:54;;;;;;;739.87;677.77;;;;;;;;;;5027199;28;20309;-66
2020/12/21 21:49:21;;;;;;;1024.50;915.10;;;;;;;;;;5028310;28;20182;-66
2020/12/21 21:51:49;;;;;;;644.03;594.97;;;;;;;;;;5028612;28;20251;-64
2020/12/21 21:54:16;;;;;;;663.67;613.27;;;;;;;;;;5028713;28;20199;-63
2020/12/21 21:56:43;;;;;;;717.00;663.43;;;;;;;;;;5027678;28;21403;-62
2020/12/21 21:59:10;;;;;;;833.73;761.03;;;;;;;;;;5030296;28;20178;-62
2020/12/21 22:01:40;;;;;;;658.63;606.87;;;;;;;;;;5034771;28;20267;-63
2020/12/21 22:04:06;;;;;;;765.50;701.63;;;;;;;;;;5038602;28;20222;-63
2020/12/21 22:06:34;;;;;;;803.07;733.93;;;;;;;;;;5034232;28;20196;-64
2020/12/21 22:09:00;;;;;;;788.93;720.50;;;;;;;;;;5021622;28;20191;-62
2020/12/21 22:11:27;;;;;;;717.50;660.37;;;;;;;;;;5030622;28;20190;-64
2020/12/21 22:13:54;;;;;;;792.93;722.93;;;;;;;;;;5029016;28;20568;-64
2020/12/21 22:16:21;;;;;;;792.97;724.13;;;;;;;;;;5024158;28;20492;-65
2020/12/21 22:18:48;;;;;;;962.33;864.47;;;;;;;;;;5024403;28;20195;-62
2020/12/21 22:21:15;;;;;;;823.70;750.77;;;;;;;;;;5026085;28;20195;-64
2020/12/21 22:23:42;;;;;;;800.20;730.33;;;;;;;;;;5025484;28;20215;-63
2020/12/21 22:26:09;;;;;;;718.83;662.37;;;;;;;;;;5026754;28;20205;-63
2020/12/21 22:28:35;;;;;;;701.17;647.17;;;;;;;;;;5033987;28;20183;-63
2020/12/21 22:31:02;;;;;;;656.63;609.50;;;;;;;;;;5030378;28;20217;-64
2020/12/21 22:33:29;;;;;;;757.47;691.20;;;;;;;;;;5030363;28;20176;-65
2020/12/21 22:35:55;;;;;;;752.50;687.70;;;;;;;;;;5027709;28;20228;-64
2020/12/21 22:38:22;;;;;;;698.93;642.87;;;;;;;;;;5029846;28;20405;-62
2020/12/21 22:40:49;;;;;;;979.20;884.90;;;;;;;;;;5034073;28;20213;-63
2020/12/21 22:43:15;;;;;;;788.70;717.97;;;;;;;;;;5022298;28;20185;-62
2020/12/21 22:45:42;;;;;;;832.37;764.03;;;;;;;;;;5026383;28;20241;-62
2020/12/21 22:48:09;;;;;;;627.40;579.70;;;;;;;;;;5027179;28;20201;-63
2020/12/21 22:50:35;;;;;;;798.77;731.10;;;;;;;;;;5037108;28;20960;-61
2020/12/21 22:53:02;;;;;;;771.70;706.33;;;;;;;;;;5034380;28;20701;-63
2020/12/21 22:55:29;;;;;;;693.87;635.97;;;;;;;;;;5031960;28;20225;-64
2020/12/21 22:57:55;;;;;;;724.20;670.37;;;;;;;;;;5029491;28;20256;-64
2020/12/21 23:00:29;;;;;;;659.37;606.57;;;;;;;;;;5033769;28;20186;-62
2020/12/21 23:02:56;;;;;;;701.17;647.07;;;;;;;;;;5040347;28;20182;-63
2020/12/21 23:05:23;;;;;;;719.83;660.83;;;;;;;;;;5036439;28;20229;-61
2020/12/21 23:07:50;;;;;;;670.40;615.73;;;;;;;;;;5039515;28;20328;-62
2020/12/21 23:10:16;;;;;;;568.33;528.60;;;;;;;;;;5026871;28;20201;-63
2020/12/21 23:12:43;;;;;;;722.13;662.33;;;;;;;;;;5038253;28;20186;-64
2020/12/21 23:15:10;;;;;;;830.93;762.80;;;;;;;;;;5030618;28;20236;-62
2020/12/21 23:17:37;;;;;;;771.93;710.87;;;;;;;;;;5036863;28;20185;-63
2020/12/21 23:20:06;;;;;;;726.43;665.47;;;;;;;;;;5037801;28;20268;-63
2020/12/21 23:22:32;;;;;;;728.17;671.93;;;;;;;;;;5031665;28;20222;-64
2020/12/21 23:24:59;;;;;;;744.53;687.23;;;;;;;;;;5034521;28;20227;-65
2020/12/21 23:27:26;;;;;;;617.13;571.13;;;;;;;;;;5029289;28;20195;-64
2020/12/21 23:29:53;;;;;;;704.93;647.30;;;;;;;;;;5035778;28;20273;-63
2020/12/21 23:32:19;;;;;;;628.50;581.77;;;;;;;;;;5035447;28;20214;-64
2020/12/21 23:34:46;;;;;;;732.73;670.33;;;;;;;;;;5039819;28;20212;-63
2020/12/21 23:37:13;;;;;;;691.07;634.63;;;;;;;;;;5034199;28;20611;-62
2020/12/21 23:39:39;;;;;;;698.23;641.13;;;;;;;;;;5037554;28;20186;-63
2020/12/21 23:42:06;;;;;;;897.70;816.70;;;;;;;;;;5032575;28;20186;-65
2020/12/21 23:44:32;;;;;;;785.53;724.40;;;;;;;;;;5034399;28;20231;-65
2020/12/21 23:47:00;;;;;;;846.53;771.47;;;;;;;;;;5031101;28;20739;-63
2020/12/21 23:49:27;;;;;;;870.70;794.53;;;;;;;;;;5034064;28;20189;-63
2020/12/21 23:51:54;;;;;;;831.13;761.47;;;;;;;;;;5030059;28;20234;-64
2020/12/21 23:54:20;;;;;;;728.90;670.70;;;;;;;;;;5031526;28;20191;-64
2020/12/21 23:56:47;;;;;;;645.27;598.07;;;;;;;;;;5034767;28;20188;-64
2020/12/21 23:59:14;;;;;;;693.23;642.03;;;;;;;;;;5032963;28;20186;-63
